createdAt,value
2022-08-03T00:01:30.136Z,2.07
2022-08-03T00:03:57.373Z,1.90
2022-08-03T00:06:24.426Z,2.00
2022-08-03T00:08:51.432Z,1.90
2022-08-03T00:11:18.471Z,2.00
2022-08-03T00:13:45.566Z,1.70
2022-08-03T00:16:13.389Z,1.90
2022-08-03T00:18:40.899Z,2.40
2022-08-03T00:21:08.116Z,2.27
2022-08-03T00:23:52.530Z,1.67
2022-08-03T00:26:22.559Z,1.77
2022-08-03T00:28:50.182Z,1.90
2022-08-03T00:31:29.674Z,1.80
2022-08-03T00:34:04.951Z,1.80
2022-08-03T00:36:33.241Z,2.10
2022-08-03T00:39:00.467Z,1.93
2022-08-03T00:41:27.747Z,2.30
2022-08-03T00:43:54.946Z,1.90
2022-08-03T00:46:22.574Z,1.97
2022-08-03T00:48:50.726Z,2.50
2022-08-03T00:51:19.100Z,2.03
2022-08-03T00:53:46.226Z,2.20
2022-08-03T00:56:17.489Z,1.87
2022-08-03T00:58:45.612Z,1.63
2022-08-03T01:01:13.295Z,1.73
2022-08-03T01:03:40.873Z,2.03
2022-08-03T01:06:39.910Z,2.43
2022-08-03T01:09:19.788Z,2.03
2022-08-03T01:12:06.592Z,2.27
2022-08-03T01:14:51.698Z,2.40
2022-08-03T01:17:33.194Z,1.70
2022-08-03T01:20:05.852Z,2.00
2022-08-03T01:23:01.579Z,2.10
2022-08-03T01:25:36.433Z,2.23
2022-08-03T01:28:41.173Z,2.17
2022-08-03T01:31:11.740Z,2.20
2022-08-03T01:33:46.715Z,2.10
2022-08-03T01:36:18.055Z,2.20
2022-08-03T01:38:51.133Z,1.90
2022-08-03T01:41:30.876Z,1.90
2022-08-03T01:44:29.239Z,2.30
2022-08-03T01:46:50.112Z,2.43
2022-08-03T01:49:18.294Z,2.40
2022-08-03T01:52:02.920Z,1.60
2022-08-03T01:54:37.792Z,2.00
2022-08-03T01:57:06.108Z,2.30
2022-08-03T01:59:35.737Z,2.47
2022-08-03T02:02:32.253Z,2.20
2022-08-03T02:04:54.190Z,2.03
2022-08-03T02:07:24.432Z,2.10
2022-08-03T02:09:52.740Z,2.30
2022-08-03T02:12:22.472Z,2.20
2022-08-03T02:14:51.057Z,2.37
2022-08-03T02:17:39.144Z,2.53
2022-08-03T02:20:09.378Z,2.20
2022-08-03T02:22:39.235Z,2.00
2022-08-03T02:25:11.146Z,2.30
2022-08-03T02:27:43.859Z,2.17
2022-08-03T02:30:13.688Z,2.40
2022-08-03T02:32:42.936Z,2.33
2022-08-03T02:35:15.346Z,2.67
2022-08-03T02:37:49.825Z,2.67
2022-08-03T02:40:20.236Z,2.37
2022-08-03T02:42:49.452Z,2.00
2022-08-03T02:45:18.396Z,2.60
2022-08-03T02:47:54.204Z,2.17
2022-08-03T02:50:24.148Z,2.70
2022-08-03T02:52:53.273Z,2.93
2022-08-03T02:55:23.247Z,2.37
2022-08-03T02:57:51.231Z,2.20
2022-08-03T03:00:27.716Z,2.73
2022-08-03T03:03:01.489Z,2.63
2022-08-03T03:05:55.485Z,2.90
2022-08-03T03:08:25.819Z,2.67
2022-08-03T03:10:55.937Z,2.90
2022-08-03T03:13:24.130Z,3.63
2022-08-03T03:15:53.746Z,2.33
2022-08-03T03:18:22.803Z,2.40
2022-08-03T03:20:53.058Z,2.70
2022-08-03T03:23:22.526Z,2.60
2022-08-03T03:25:50.340Z,2.43
2022-08-03T03:28:17.503Z,2.57
2022-08-03T03:30:44.976Z,2.77
2022-08-03T03:33:20.306Z,3.20
2022-08-03T03:35:47.594Z,2.20
2022-08-03T03:38:14.668Z,2.23
2022-08-03T03:40:42.018Z,2.50
2022-08-03T03:43:10.946Z,2.40
2022-08-03T03:45:40.664Z,2.70
2022-08-03T03:48:08.348Z,2.87
2022-08-03T03:50:37.088Z,2.50
2022-08-03T03:53:05.050Z,2.80
2022-08-03T03:55:37.536Z,2.40
2022-08-03T03:58:24.900Z,2.50
2022-08-03T04:00:53.938Z,2.63
2022-08-03T04:03:21.260Z,2.80
2022-08-03T04:06:07.237Z,2.20
2022-08-03T04:08:52.634Z,2.17
2022-08-03T04:11:20.852Z,2.47
2022-08-03T04:14:10.939Z,2.57
2022-08-03T04:16:45.140Z,2.80
2022-08-03T04:19:28.385Z,3.30
2022-08-03T04:21:59.119Z,2.70
2022-08-03T04:24:35.164Z,3.23
2022-08-03T04:27:06.335Z,3.47
2022-08-03T04:29:38.652Z,2.90
2022-08-03T04:32:17.232Z,3.20
2022-08-03T04:34:45.153Z,3.27
2022-08-03T04:37:18.964Z,3.60
2022-08-03T04:39:49.912Z,3.33
2022-08-03T04:42:18.672Z,4.10
2022-08-03T04:44:47.995Z,4.13
2022-08-03T04:47:15.850Z,3.47
2022-08-03T04:49:43.559Z,4.17
2022-08-03T04:52:11.216Z,3.80
2022-08-03T04:54:48.779Z,3.53
2022-08-03T04:57:18.101Z,4.83
2022-08-03T04:59:54.765Z,4.93
2022-08-03T05:02:25.334Z,5.07
2022-08-03T05:04:52.703Z,4.90
2022-08-03T05:07:24.854Z,4.90
2022-08-03T05:09:57.675Z,5.30
2022-08-03T05:12:33.649Z,5.57
2022-08-03T05:15:01.257Z,5.13
2022-08-03T05:17:28.982Z,5.07
2022-08-03T05:19:56.699Z,5.50
2022-08-03T05:22:23.830Z,5.60
2022-08-03T05:24:50.879Z,6.23
2022-08-03T05:27:19.545Z,5.93
2022-08-03T05:29:47.611Z,5.87
2022-08-03T05:32:15.666Z,6.10
2022-08-03T05:34:43.543Z,6.13
2022-08-03T05:37:11.068Z,5.40
2022-08-03T05:39:38.368Z,6.17
2022-08-03T05:42:05.469Z,5.70
2022-08-03T05:44:32.569Z,5.67
2022-08-03T05:46:59.875Z,5.93
2022-08-03T05:49:27.003Z,6.00
2022-08-03T05:52:00.360Z,6.20
2022-08-03T05:54:55.856Z,6.20
2022-08-03T05:57:25.022Z,6.60
2022-08-03T05:59:53.839Z,6.23
2022-08-03T06:02:24.917Z,5.23
2022-08-03T06:04:51.909Z,5.83
2022-08-03T06:07:18.910Z,6.00
2022-08-03T06:10:35.193Z,5.83
2022-08-03T06:12:36.384Z,5.53
2022-08-03T06:15:04.923Z,5.23
2022-08-03T06:17:37.250Z,4.77
2022-08-03T06:20:05.709Z,5.00
2022-08-03T06:22:32.665Z,4.70
2022-08-03T06:25:04.241Z,4.60
2022-08-03T06:27:36.835Z,4.50
2022-08-03T06:30:05.813Z,5.60
2022-08-03T06:32:33.778Z,5.23
2022-08-03T06:35:01.179Z,6.13
2022-08-03T06:37:28.910Z,5.33
2022-08-03T06:39:55.991Z,4.00
2022-08-03T06:42:23.504Z,4.10
2022-08-03T06:44:52.330Z,4.77
2022-08-03T06:47:19.422Z,3.90
2022-08-03T06:50:12.846Z,4.27
2022-08-03T06:52:38.484Z,3.53
2022-08-03T06:55:12.009Z,4.00
2022-08-03T06:57:39.156Z,3.60
2022-08-03T07:00:11.863Z,3.40
2022-08-03T07:02:42.918Z,3.53
2022-08-03T07:05:10.573Z,4.33
2022-08-03T07:07:38.393Z,3.70
2022-08-03T07:10:06.871Z,3.17
2022-08-03T07:12:34.772Z,3.37
2022-08-03T07:15:03.443Z,2.90
2022-08-03T07:17:32.553Z,3.00
2022-08-03T07:20:00.654Z,4.33
2022-08-03T07:22:28.404Z,3.23
2022-08-03T07:24:55.718Z,4.60
2022-08-03T07:27:22.861Z,3.23
2022-08-03T07:29:49.998Z,2.77
2022-08-03T07:32:17.327Z,3.20
2022-08-03T07:34:44.632Z,2.87
2022-08-03T07:37:11.686Z,5.43
2022-08-03T07:39:38.730Z,2.60
2022-08-03T07:42:05.965Z,4.30
2022-08-03T07:44:33.077Z,3.50
2022-08-03T07:47:00.518Z,2.43
2022-08-03T07:49:31.405Z,2.30
2022-08-03T07:52:17.456Z,2.20
2022-08-03T07:54:45.065Z,1.80
2022-08-03T07:57:12.242Z,2.47
2022-08-03T07:59:56.808Z,2.57
2022-08-03T08:02:26.912Z,2.40
2022-08-03T08:04:54.150Z,2.30
2022-08-03T08:07:21.573Z,2.80
2022-08-03T08:09:48.720Z,2.00
2022-08-03T08:12:16.381Z,1.80
2022-08-03T08:14:46.774Z,1.80
2022-08-03T08:17:14.321Z,2.00
2022-08-03T08:19:51.232Z,1.93
2022-08-03T08:22:28.738Z,1.47
2022-08-03T08:24:58.014Z,1.80
2022-08-03T08:27:25.529Z,1.90
2022-08-03T08:29:55.760Z,2.10
2022-08-03T08:32:24.778Z,2.27
2022-08-03T08:34:51.926Z,1.50
2022-08-03T08:37:19.120Z,2.37
2022-08-03T08:39:46.189Z,1.97
2022-08-03T08:42:13.567Z,1.83
2022-08-03T08:44:40.679Z,1.80
2022-08-03T08:47:09.578Z,1.90
2022-08-03T08:49:39.749Z,1.77
2022-08-03T08:52:25.464Z,1.87
2022-08-03T08:55:01.093Z,1.87
2022-08-03T08:57:43.263Z,1.80
2022-08-03T09:00:14.992Z,1.77
2022-08-03T09:02:45.036Z,1.63
2022-08-03T09:05:17.522Z,1.93
2022-08-03T09:07:46.022Z,1.77
2022-08-03T09:10:14.751Z,1.70
2022-08-03T09:12:47.424Z,1.80
2022-08-03T09:15:17.911Z,1.90
2022-08-03T09:17:48.951Z,1.70
2022-08-03T09:20:19.023Z,2.20
2022-08-03T09:23:59.090Z,2.13
2022-08-03T09:26:00.095Z,1.90
2022-08-03T09:28:57.962Z,2.13
2022-08-03T09:31:43.347Z,1.30
2022-08-03T09:34:13.821Z,1.80
2022-08-03T09:36:43.004Z,2.10
2022-08-03T09:39:17.740Z,1.80
2022-08-03T09:42:05.834Z,1.70
2022-08-03T09:44:49.708Z,1.77
2022-08-03T09:47:28.575Z,2.03
2022-08-03T09:50:07.558Z,1.57
2022-08-03T09:52:52.064Z,1.80
2022-08-03T09:56:35.256Z,1.60
2022-08-03T09:58:14.408Z,1.70
2022-08-03T10:01:07.959Z,1.80
2022-08-03T10:04:04.031Z,1.50
2022-08-03T10:06:32.131Z,1.97
2022-08-03T10:09:11.302Z,1.80
2022-08-03T10:11:42.121Z,1.80
2022-08-03T10:14:18.825Z,1.40
2022-08-03T10:16:47.646Z,1.57
2022-08-03T10:19:15.786Z,1.60
2022-08-03T10:21:50.094Z,1.70
2022-08-03T10:24:21.156Z,1.60
2022-08-03T10:26:50.378Z,2.10
2022-08-03T10:29:28.239Z,1.87
2022-08-03T10:31:59.050Z,1.53
2022-08-03T10:34:27.638Z,1.70
2022-08-03T10:36:58.602Z,1.50
2022-08-03T10:39:29.398Z,1.70
2022-08-03T10:42:00.025Z,1.90
2022-08-03T10:44:37.423Z,1.60
2022-08-03T10:47:05.184Z,1.80
2022-08-03T10:49:34.697Z,2.00
2022-08-03T10:52:12.797Z,1.50
2022-08-03T10:55:10.897Z,1.73
2022-08-03T10:57:45.879Z,1.20
2022-08-03T11:00:18.715Z,1.30
2022-08-03T11:03:06.497Z,1.80
2022-08-03T11:05:39.821Z,1.60
2022-08-03T11:08:30.694Z,2.00
2022-08-03T11:11:17.402Z,1.70
2022-08-03T11:14:04.554Z,1.87
2022-08-03T11:16:35.666Z,1.70
2022-08-03T11:19:05.586Z,1.50
2022-08-03T11:21:51.114Z,1.60
2022-08-03T11:24:36.893Z,2.20
2022-08-03T11:27:19.005Z,1.40
2022-08-03T11:29:58.408Z,1.60
2022-08-03T11:32:37.764Z,1.50
2022-08-03T11:35:25.314Z,1.63
2022-08-03T11:38:04.482Z,1.47
2022-08-03T11:40:51.680Z,1.47
2022-08-03T11:43:31.787Z,1.40
2022-08-03T11:46:06.386Z,1.40
2022-08-03T11:48:43.337Z,1.40
2022-08-03T11:51:25.592Z,1.30
2022-08-03T11:54:01.353Z,1.57
2022-08-03T11:56:29.684Z,1.40
2022-08-03T11:59:20.690Z,1.50
2022-08-03T12:01:46.136Z,1.13
2022-08-03T12:04:13.192Z,1.20
2022-08-03T12:06:55.313Z,1.27
2022-08-03T12:09:22.943Z,1.23
2022-08-03T12:12:00.572Z,1.30
2022-08-03T12:14:48.292Z,1.30
2022-08-03T12:17:17.400Z,1.33
2022-08-03T12:19:45.348Z,1.70
2022-08-03T12:22:12.505Z,1.30
2022-08-03T12:24:46.874Z,1.60
2022-08-03T12:27:25.354Z,1.55
2022-08-03T12:29:58.444Z,1.42
2022-08-03T12:32:27.598Z,1.50
2022-08-03T12:35:00.212Z,1.48
2022-08-03T12:37:28.000Z,1.58
2022-08-03T12:40:02.807Z,1.45
2022-08-03T12:42:35.899Z,1.35
2022-08-03T12:45:20.445Z,1.38
2022-08-03T12:47:59.154Z,1.27
2022-08-03T12:50:27.413Z,1.40
2022-08-03T12:52:55.594Z,1.15
2022-08-03T12:55:23.858Z,1.38
2022-08-03T12:57:50.989Z,1.38
2022-08-03T13:00:21.448Z,1.30
2022-08-03T13:03:41.808Z,1.50
2022-08-03T13:05:57.459Z,1.50
2022-08-03T13:08:25.752Z,1.55
2022-08-03T13:10:53.480Z,1.13
2022-08-03T13:13:39.580Z,1.48
2022-08-03T13:16:06.789Z,1.55
2022-08-03T13:18:33.789Z,1.45
2022-08-03T13:21:01.012Z,1.52
2022-08-03T13:23:28.151Z,1.50
2022-08-03T13:25:56.286Z,1.55
2022-08-03T13:28:23.705Z,1.42
2022-08-03T13:30:50.952Z,1.13
2022-08-03T13:33:18.434Z,1.60
2022-08-03T13:35:45.599Z,1.30
2022-08-03T13:38:12.641Z,1.33
2022-08-03T13:40:42.628Z,1.40
2022-08-03T13:43:09.740Z,1.52
2022-08-03T13:45:37.030Z,1.23
2022-08-03T13:48:04.978Z,1.70
2022-08-03T13:50:32.370Z,1.53
2022-08-03T13:52:59.429Z,1.30
2022-08-03T13:55:26.546Z,1.42
2022-08-03T13:58:04.251Z,1.10
2022-08-03T14:00:40.024Z,1.37
2022-08-03T14:03:13.857Z,1.77
2022-08-03T14:05:42.986Z,1.38
2022-08-03T14:08:11.207Z,1.40
2022-08-03T14:10:40.659Z,1.25
2022-08-03T14:13:08.600Z,1.30
2022-08-03T14:15:37.682Z,1.27
2022-08-03T14:18:06.599Z,1.10
2022-08-03T14:20:38.458Z,1.50
2022-08-03T14:23:07.491Z,1.60
2022-08-03T14:25:49.865Z,1.45
2022-08-03T14:28:19.682Z,1.13
2022-08-03T14:30:47.967Z,1.57
2022-08-03T14:33:15.661Z,1.42
2022-08-03T14:35:42.969Z,1.30
2022-08-03T14:38:10.064Z,1.40
2022-08-03T14:40:37.210Z,1.50
2022-08-03T14:43:04.455Z,1.30
2022-08-03T14:45:31.576Z,1.20
2022-08-03T14:50:28.515Z,1.40
2022-08-03T14:50:51.696Z,1.40
2022-08-03T14:53:20.196Z,1.48
2022-08-03T14:55:50.520Z,1.30
2022-08-03T14:58:23.280Z,1.30
2022-08-03T15:00:51.728Z,1.63
2022-08-03T15:03:23.225Z,1.55
2022-08-03T15:05:56.104Z,1.20
2022-08-03T15:08:25.071Z,1.20
2022-08-03T15:10:53.649Z,1.80
2022-08-03T15:13:21.467Z,1.50
2022-08-03T15:15:49.796Z,1.40
2022-08-03T15:18:16.927Z,1.30
2022-08-03T15:20:45.915Z,1.40
2022-08-03T15:23:15.329Z,1.40
2022-08-03T15:26:29.165Z,1.37
2022-08-03T15:28:31.568Z,1.00
2022-08-03T15:30:58.923Z,1.30
2022-08-03T15:33:25.971Z,1.43
2022-08-03T15:35:53.456Z,1.00
2022-08-03T15:38:25.645Z,1.60
2022-08-03T15:40:57.161Z,1.27
2022-08-03T15:43:24.542Z,1.00
2022-08-03T15:46:26.646Z,1.40
2022-08-03T15:48:39.924Z,1.33
2022-08-03T15:51:07.744Z,1.30
2022-08-03T15:53:34.772Z,1.20
2022-08-03T15:56:09.726Z,1.00
2022-08-03T15:59:04.450Z,1.30
2022-08-03T16:01:26.539Z,1.30
2022-08-03T16:03:53.805Z,1.17
2022-08-03T16:06:29.589Z,1.20
2022-08-03T16:09:04.558Z,1.10
2022-08-03T16:11:31.665Z,0.87
2022-08-03T16:14:13.514Z,1.23
2022-08-03T16:16:46.733Z,1.00
2022-08-03T16:19:14.008Z,1.57
2022-08-03T16:21:48.019Z,1.30
2022-08-03T16:24:19.887Z,0.90
2022-08-03T16:26:55.327Z,1.47
2022-08-03T16:29:23.530Z,1.07
2022-08-03T16:31:52.163Z,1.23
2022-08-03T16:34:21.542Z,1.10
2022-08-03T16:36:48.693Z,0.90
2022-08-03T16:39:15.888Z,1.37
2022-08-03T16:42:00.691Z,1.20
2022-08-03T16:44:31.025Z,1.13
2022-08-03T16:46:59.684Z,1.13
2022-08-03T16:49:54.012Z,1.20
2022-08-03T16:52:14.121Z,1.20
2022-08-03T16:54:44.487Z,0.90
2022-08-03T16:57:57.828Z,1.30
2022-08-03T17:00:08.525Z,1.23
2022-08-03T17:02:36.246Z,1.23
2022-08-03T17:05:04.640Z,1.43
2022-08-03T17:07:31.740Z,1.30
2022-08-03T17:10:00.557Z,1.03
2022-08-03T17:12:28.027Z,1.10
2022-08-03T17:14:57.566Z,1.30
2022-08-03T17:17:30.549Z,1.00
2022-08-03T17:20:15.840Z,1.10
2022-08-03T17:22:56.156Z,1.13
2022-08-03T17:26:01.644Z,1.20
2022-08-03T17:28:50.424Z,1.73
2022-08-03T17:31:23.273Z,1.20
2022-08-03T17:33:58.152Z,1.17
2022-08-03T17:36:47.508Z,0.93
2022-08-03T17:39:19.187Z,1.27
2022-08-03T17:41:51.559Z,1.40
2022-08-03T17:44:28.894Z,1.23
2022-08-03T17:47:00.498Z,1.30
2022-08-03T17:49:28.754Z,1.20
2022-08-03T17:52:23.439Z,1.20
2022-08-03T17:55:50.586Z,1.30
2022-08-03T17:58:08.424Z,1.27
2022-08-03T18:00:55.829Z,1.20
2022-08-03T18:03:58.549Z,0.93
2022-08-03T18:06:31.351Z,1.20
2022-08-03T18:09:00.205Z,1.00
2022-08-03T18:11:35.895Z,0.97
2022-08-03T18:14:16.612Z,1.10
2022-08-03T18:16:46.528Z,1.10
2022-08-03T18:19:14.697Z,1.13
2022-08-03T18:22:02.960Z,1.20
2022-08-03T18:24:31.227Z,1.30
2022-08-03T18:27:02.280Z,1.17
2022-08-03T18:29:31.049Z,1.20
2022-08-03T18:32:03.892Z,1.20
2022-08-03T18:34:34.622Z,1.33
2022-08-03T18:37:07.170Z,1.30
2022-08-03T18:39:49.233Z,1.23
2022-08-03T18:42:19.455Z,1.57
2022-08-03T18:44:54.449Z,1.27
2022-08-03T18:47:52.282Z,1.13
2022-08-03T18:50:41.382Z,1.20
2022-08-03T18:53:19.771Z,1.17
2022-08-03T18:56:26.946Z,1.40
2022-08-03T18:59:03.557Z,1.37
2022-08-03T19:01:58.332Z,1.50
2022-08-03T19:04:44.362Z,1.30
2022-08-03T19:07:22.236Z,1.23
2022-08-03T19:09:59.117Z,1.47
2022-08-03T19:12:39.968Z,1.57
2022-08-03T19:15:10.573Z,1.30
2022-08-03T19:17:52.842Z,1.50
2022-08-03T19:20:26.325Z,1.30
2022-08-03T19:22:55.135Z,1.43
2022-08-03T19:25:34.507Z,1.30
2022-08-03T19:28:06.081Z,1.20
2022-08-03T19:30:40.486Z,1.53
2022-08-03T19:33:13.213Z,1.40
2022-08-03T19:35:55.402Z,1.50
2022-08-03T19:38:29.292Z,1.33
2022-08-03T19:41:00.022Z,1.03
2022-08-03T19:43:33.011Z,1.67
2022-08-03T19:46:18.977Z,1.50
2022-08-03T19:48:55.721Z,1.60
2022-08-03T19:51:26.520Z,1.53
2022-08-03T19:54:17.600Z,1.70
2022-08-03T19:56:59.032Z,1.73
2022-08-03T19:59:27.033Z,1.63
2022-08-03T20:01:54.251Z,1.40
2022-08-03T20:04:21.906Z,1.57
2022-08-03T20:06:50.115Z,1.27
2022-08-03T20:09:18.769Z,1.30
2022-08-03T20:11:47.875Z,1.40
2022-08-03T20:14:20.746Z,1.53
2022-08-03T20:16:53.717Z,2.20
2022-08-03T20:19:21.409Z,1.70
2022-08-03T20:21:49.982Z,1.47
2022-08-03T20:24:26.132Z,2.23
2022-08-03T20:26:56.777Z,2.00
2022-08-03T20:30:06.338Z,1.43
2022-08-03T20:32:35.462Z,1.97
2022-08-03T20:35:02.792Z,1.00
2022-08-03T20:37:37.545Z,1.40
2022-08-03T20:40:06.519Z,1.50
2022-08-03T20:42:33.990Z,1.33
2022-08-03T20:45:05.223Z,1.70
2022-08-03T20:47:35.902Z,1.90
2022-08-03T20:50:07.605Z,1.40
2022-08-03T20:52:36.549Z,1.80
2022-08-03T20:55:18.759Z,1.37
2022-08-03T20:57:49.239Z,1.37
2022-08-03T21:00:21.957Z,1.33
2022-08-03T21:02:49.435Z,1.73
2022-08-03T21:05:16.497Z,1.50
2022-08-03T21:08:05.973Z,1.20
2022-08-03T21:10:38.644Z,1.40
2022-08-03T21:13:17.081Z,1.50
2022-08-03T21:16:06.983Z,1.93
2022-08-03T21:18:43.050Z,2.17
2022-08-03T21:21:14.788Z,1.70
2022-08-03T21:23:49.129Z,2.70
2022-08-03T21:26:19.238Z,2.00
2022-08-03T21:28:48.393Z,1.80
2022-08-03T21:31:24.836Z,1.90
2022-08-03T21:34:02.907Z,1.73
2022-08-03T21:36:34.946Z,1.53
2022-08-03T21:39:04.187Z,2.07
2022-08-03T21:41:32.797Z,1.50
2022-08-03T21:44:01.070Z,1.63
2022-08-03T21:46:31.626Z,1.70
2022-08-03T21:49:52.089Z,1.90
2022-08-03T21:51:52.188Z,1.47
2022-08-03T21:54:23.053Z,1.87
2022-08-03T21:56:51.373Z,1.77
2022-08-03T21:59:21.822Z,2.10
2022-08-03T22:01:55.302Z,1.20
2022-08-03T22:04:53.250Z,1.70
2022-08-03T22:07:13.870Z,1.80
2022-08-03T22:09:50.210Z,1.63
2022-08-03T22:12:28.585Z,1.60
2022-08-03T22:15:01.109Z,1.93
2022-08-03T22:17:55.917Z,1.70
2022-08-03T22:20:22.578Z,2.00
2022-08-03T22:22:57.055Z,1.87
2022-08-03T22:25:33.830Z,1.90
2022-08-03T22:28:04.117Z,2.77
2022-08-03T22:30:33.254Z,1.90
2022-08-03T22:33:02.523Z,2.13
2022-08-03T22:35:32.812Z,2.07
2022-08-03T22:38:15.651Z,1.90
2022-08-03T22:40:43.826Z,1.90
2022-08-03T22:43:10.937Z,2.10
2022-08-03T22:46:07.332Z,1.93
2022-08-03T22:48:27.732Z,2.00
2022-08-03T22:50:56.385Z,2.10
2022-08-03T22:53:24.068Z,1.97
2022-08-03T22:55:52.228Z,2.10
2022-08-03T22:58:21.036Z,2.40
2022-08-03T23:01:03.148Z,2.13
2022-08-03T23:04:00.253Z,2.53
2022-08-03T23:06:26.423Z,2.63
2022-08-03T23:08:54.284Z,2.13
2022-08-03T23:11:23.989Z,2.33
2022-08-03T23:13:54.441Z,2.10
2022-08-03T23:16:28.792Z,2.23
2022-08-03T23:18:58.913Z,2.30
2022-08-03T23:21:53.508Z,2.30
2022-08-03T23:24:24.589Z,2.70
2022-08-03T23:26:57.618Z,2.80
2022-08-03T23:29:26.223Z,2.20
2022-08-03T23:31:55.057Z,2.10
2022-08-03T23:34:42.646Z,2.53
2022-08-03T23:37:12.956Z,2.00
2022-08-03T23:39:40.799Z,2.13
2022-08-03T23:42:09.053Z,2.43
2022-08-03T23:44:37.493Z,2.33
2022-08-03T23:47:04.600Z,2.43
2022-08-03T23:49:31.788Z,2.50
2022-08-03T23:52:31.442Z,2.27
2022-08-03T23:55:19.315Z,2.20
2022-08-03T23:58:19.737Z,2.43
